createdAt,value
2018-07-02T00:00:50.124Z,12.90
2018-07-02T00:03:20.603Z,12.90
2018-07-02T00:06:07.751Z,12.90
2018-07-02T00:08:38.187Z,12.80
2018-07-02T00:11:09.384Z,12.80
2018-07-02T00:13:39.779Z,12.70
2018-07-02T00:16:10.049Z,12.70
2018-07-02T00:18:40.447Z,12.60
2018-07-02T00:21:10.688Z,12.60
2018-07-02T00:23:41.285Z,12.50
2018-07-02T00:26:12.265Z,12.50
2018-07-02T00:28:43.050Z,12.50
2018-07-02T00:31:13.829Z,12.50
2018-07-02T00:33:44.884Z,12.40
2018-07-02T00:36:14.967Z,12.40
2018-07-02T00:38:45.523Z,12.30
2018-07-02T00:41:16.124Z,12.30
2018-07-02T00:43:46.768Z,12.30
2018-07-02T00:46:17.143Z,12.30
2018-07-02T00:48:47.430Z,12.20
2018-07-02T00:51:18.209Z,12.20
2018-07-02T00:53:48.799Z,12.20
2018-07-02T00:56:19.531Z,12.20
2018-07-02T00:58:49.976Z,12.10
2018-07-02T01:01:21.727Z,12.10
2018-07-02T01:03:52.161Z,12.00
2018-07-02T01:06:22.518Z,12.00
2018-07-02T01:08:53.068Z,12.00
2018-07-02T01:11:23.558Z,12.00
2018-07-02T01:13:54.274Z,12.00
2018-07-02T01:16:25.237Z,11.90
2018-07-02T01:18:55.705Z,11.90
2018-07-02T01:21:26.514Z,11.80
2018-07-02T01:23:56.987Z,11.80
2018-07-02T01:26:28.384Z,11.80
2018-07-02T01:28:59.095Z,11.80
2018-07-02T01:31:29.917Z,11.80
2018-07-02T01:34:00.567Z,11.80
2018-07-02T01:36:31.128Z,11.80
2018-07-02T01:39:01.983Z,11.70
2018-07-02T01:41:32.379Z,11.80
2018-07-02T01:44:02.936Z,11.70
2018-07-02T01:46:33.746Z,11.70
2018-07-02T01:49:04.451Z,11.70
2018-07-02T01:51:35.045Z,11.60
2018-07-02T01:54:05.763Z,11.50
2018-07-02T01:56:36.561Z,11.40
2018-07-02T01:59:06.859Z,11.40
2018-07-02T02:01:37.254Z,11.30
2018-07-02T02:04:07.676Z,11.20
2018-07-02T02:06:38.332Z,11.20
2018-07-02T02:09:10.905Z,11.10
2018-07-02T02:11:41.475Z,11.10
2018-07-02T02:14:12.284Z,11.10
2018-07-02T02:16:42.819Z,11.00
2018-07-02T02:19:13.402Z,11.00
2018-07-02T02:21:44.679Z,10.90
2018-07-02T02:24:14.986Z,10.90
2018-07-02T02:26:45.739Z,10.80
2018-07-02T02:29:16.198Z,10.80
2018-07-02T02:31:46.769Z,10.70
2018-07-02T02:34:17.317Z,10.70
2018-07-02T02:36:48.312Z,10.70
2018-07-02T02:39:18.575Z,10.70
2018-07-02T02:41:49.263Z,10.60
2018-07-02T02:44:20.365Z,10.70
2018-07-02T02:46:50.681Z,10.70
2018-07-02T02:49:21.211Z,10.70
2018-07-02T02:51:51.966Z,10.70
2018-07-02T02:54:22.376Z,10.60
2018-07-02T02:56:53.282Z,10.60
2018-07-02T02:59:24.184Z,10.60
2018-07-02T03:01:54.686Z,10.50
2018-07-02T03:04:25.315Z,10.50
2018-07-02T03:06:55.641Z,10.60
2018-07-02T03:09:26.335Z,10.60
2018-07-02T03:11:56.401Z,10.60
2018-07-02T03:14:27.179Z,10.60
2018-07-02T03:16:58.076Z,10.70
2018-07-02T03:19:28.568Z,10.70
2018-07-02T03:21:59.084Z,10.80
2018-07-02T03:24:29.568Z,10.80
2018-07-02T03:27:00.125Z,10.80
2018-07-02T03:29:30.667Z,10.80
2018-07-02T03:32:00.924Z,10.80
2018-07-02T03:34:31.099Z,10.70
2018-07-02T03:37:01.757Z,10.70
2018-07-02T03:39:32.320Z,10.70
2018-07-02T03:42:02.896Z,10.60
2018-07-02T03:44:33.163Z,10.60
2018-07-02T03:47:03.399Z,10.50
2018-07-02T03:49:33.927Z,10.50
2018-07-02T03:52:05.233Z,10.60
2018-07-02T03:54:35.827Z,10.60
2018-07-02T03:57:08.065Z,10.60
2018-07-02T03:59:39.936Z,10.60
2018-07-02T04:02:10.876Z,10.60
2018-07-02T04:04:42.025Z,10.50
2018-07-02T04:07:13.574Z,10.50
2018-07-02T04:09:43.829Z,10.60
2018-07-02T04:12:14.599Z,10.60
2018-07-02T04:14:45.117Z,10.60
2018-07-02T04:17:15.819Z,10.60
2018-07-02T04:19:46.140Z,10.70
2018-07-02T04:22:16.622Z,10.80
2018-07-02T04:24:46.982Z,10.90
2018-07-02T04:27:17.221Z,10.90
2018-07-02T04:29:47.961Z,11.00
2018-07-02T04:32:18.268Z,11.10
2018-07-02T04:34:48.956Z,11.10
2018-07-02T04:37:19.455Z,11.20
2018-07-02T04:39:50.007Z,11.30
2018-07-02T04:42:20.239Z,11.40
2018-07-02T04:44:51.175Z,11.40
2018-07-02T04:47:21.876Z,11.50
2018-07-02T04:49:52.401Z,11.60
2018-07-02T04:52:23.247Z,11.70
2018-07-02T04:54:54.230Z,11.80
2018-07-02T04:57:24.704Z,11.90
2018-07-02T04:59:54.813Z,12.10
2018-07-02T05:02:25.143Z,12.30
2018-07-02T05:04:56.676Z,12.60
2018-07-02T05:07:27.203Z,12.90
2018-07-02T05:09:58.210Z,13.20
2018-07-02T05:12:28.241Z,13.50
2018-07-02T05:14:58.529Z,13.80
2018-07-02T05:17:28.723Z,14.10
2018-07-02T05:19:58.778Z,14.30
2018-07-02T05:22:28.936Z,14.70
2018-07-02T05:24:59.220Z,14.90
2018-07-02T05:27:30.047Z,15.10
2018-07-02T05:30:00.784Z,15.30
2018-07-02T05:32:31.499Z,15.50
2018-07-02T05:35:02.213Z,15.70
2018-07-02T05:37:33.161Z,15.90
2018-07-02T05:40:03.857Z,16.10
2018-07-02T05:42:34.561Z,16.40
2018-07-02T05:45:05.750Z,16.70
2018-07-02T05:47:36.895Z,17.00
2018-07-02T05:50:07.687Z,17.20
2018-07-02T05:52:38.513Z,17.40
2018-07-02T05:55:09.282Z,17.40
2018-07-02T05:57:40.820Z,17.50
2018-07-02T06:00:12.045Z,17.60
2018-07-02T06:02:42.967Z,17.50
2018-07-02T06:05:13.855Z,17.70
2018-07-02T06:07:44.667Z,17.80
2018-07-02T06:10:15.813Z,18.00
2018-07-02T06:12:46.487Z,18.20
2018-07-02T06:15:17.308Z,18.30
2018-07-02T06:17:47.908Z,18.30
2018-07-02T06:20:18.975Z,18.50
2018-07-02T06:22:49.816Z,18.50
2018-07-02T06:27:51.110Z,18.50
2018-07-02T06:30:21.882Z,18.50
2018-07-02T06:32:52.912Z,18.40
2018-07-02T06:35:23.620Z,18.40
2018-07-02T06:37:54.403Z,18.40
2018-07-02T06:40:24.979Z,18.30
2018-07-02T06:42:55.060Z,18.40
2018-07-02T06:45:25.532Z,18.30
2018-07-02T06:47:56.534Z,18.40
2018-07-02T06:50:27.408Z,18.40
2018-07-02T06:52:58.517Z,18.40
2018-07-02T06:55:29.072Z,18.40
2018-07-02T06:58:00.263Z,18.40
2018-07-02T07:00:30.968Z,18.50
2018-07-02T07:03:01.452Z,18.50
2018-07-02T07:05:32.202Z,18.60
2018-07-02T07:08:03.539Z,18.70
2018-07-02T07:10:34.247Z,18.80
2018-07-02T07:13:04.991Z,18.80
2018-07-02T07:15:36.900Z,18.90
2018-07-02T07:18:08.459Z,18.90
2018-07-02T07:20:39.172Z,19.00
2018-07-02T07:23:09.911Z,19.20
2018-07-02T07:25:40.805Z,19.30
2018-07-02T07:28:11.363Z,19.40
2018-07-02T07:30:41.967Z,19.40
2018-07-02T07:33:12.832Z,19.20
2018-07-02T07:35:43.444Z,19.30
2018-07-02T07:38:14.821Z,19.40
2018-07-02T07:40:45.604Z,19.40
2018-07-02T07:43:16.494Z,19.40
2018-07-02T07:45:47.698Z,19.50
2018-07-02T07:48:18.308Z,19.60
2018-07-02T07:50:49.199Z,19.80
2018-07-02T07:53:20.024Z,19.90
2018-07-02T07:55:51.531Z,20.10
2018-07-02T07:58:22.375Z,20.20
2018-07-02T08:00:53.052Z,20.40
2018-07-02T08:03:23.669Z,20.40
2018-07-02T08:05:54.879Z,20.40
2018-07-02T08:08:25.847Z,20.50
2018-07-02T08:10:57.293Z,20.50
2018-07-02T08:13:28.293Z,20.40
2018-07-02T08:15:59.105Z,20.40
2018-07-02T08:18:30.020Z,20.50
2018-07-02T08:21:01.108Z,20.60
2018-07-02T08:23:32.029Z,20.70
2018-07-02T08:26:02.900Z,20.80
2018-07-02T08:28:33.735Z,20.80
2018-07-02T08:31:04.321Z,20.90
2018-07-02T08:33:35.036Z,21.00
2018-07-02T08:36:06.172Z,20.90
2018-07-02T08:38:37.043Z,20.90
2018-07-02T08:41:08.628Z,21.00
2018-07-02T08:43:39.824Z,21.10
2018-07-02T08:46:10.964Z,21.20
2018-07-02T08:48:41.858Z,21.30
2018-07-02T08:51:12.563Z,21.50
2018-07-02T08:53:43.395Z,21.60
2018-07-02T08:56:13.891Z,21.60
2018-07-02T08:58:44.995Z,21.80
2018-07-02T09:01:15.639Z,21.90
2018-07-02T09:03:46.559Z,21.90
2018-07-02T09:06:17.104Z,22.00
2018-07-02T09:08:47.763Z,22.10
2018-07-02T09:11:18.644Z,22.20
2018-07-02T09:13:50.556Z,22.20
2018-07-02T09:16:21.948Z,22.40
2018-07-02T09:18:52.821Z,22.30
2018-07-02T09:21:23.474Z,22.40
2018-07-02T09:23:54.293Z,22.60
2018-07-02T09:26:24.763Z,22.60
2018-07-02T09:28:55.664Z,22.40
2018-07-02T09:31:26.580Z,22.40
2018-07-02T09:33:57.087Z,22.50
2018-07-02T09:36:27.554Z,22.50
2018-07-02T09:38:58.242Z,22.50
2018-07-02T09:41:29.371Z,22.70
2018-07-02T09:43:59.879Z,22.90
2018-07-02T09:46:31.104Z,22.90
2018-07-02T09:49:02.091Z,23.00
2018-07-02T09:51:33.287Z,23.20
2018-07-02T09:54:04.215Z,23.30
2018-07-02T09:56:35.011Z,23.20
2018-07-02T09:59:05.585Z,23.30
2018-07-02T10:01:36.074Z,23.30
2018-07-02T10:04:07.096Z,23.40
2018-07-02T10:06:37.747Z,23.40
2018-07-02T10:09:11.745Z,23.30
2018-07-02T10:11:43.368Z,23.40
2018-07-02T10:14:14.408Z,23.40
2018-07-02T10:16:45.060Z,23.50
2018-07-02T10:19:15.682Z,23.60
2018-07-02T10:21:46.241Z,23.60
2018-07-02T10:24:17.254Z,23.70
2018-07-02T10:26:48.111Z,23.60
2018-07-02T10:29:18.870Z,23.60
2018-07-02T10:31:50.124Z,23.40
2018-07-02T10:34:20.738Z,23.60
2018-07-02T10:36:51.276Z,23.60
2018-07-02T10:39:22.245Z,23.90
2018-07-02T10:41:53.084Z,23.90
2018-07-02T10:44:24.001Z,24.00
2018-07-02T10:46:54.683Z,23.80
2018-07-02T10:49:25.515Z,23.90
2018-07-02T10:51:56.475Z,24.00
2018-07-02T10:54:27.146Z,24.00
2018-07-02T10:56:57.870Z,24.10
2018-07-02T10:59:28.618Z,24.10
2018-07-02T11:01:59.569Z,24.00
2018-07-02T11:04:30.483Z,24.20
2018-07-02T11:07:01.440Z,24.60
2018-07-02T11:09:32.718Z,25.10
2018-07-02T11:12:04.059Z,25.20
2018-07-02T11:14:34.900Z,25.20
2018-07-02T11:17:06.148Z,25.20
2018-07-02T11:19:37.498Z,25.20
2018-07-02T11:22:09.364Z,25.30
2018-07-02T11:24:40.203Z,25.20
2018-07-02T11:27:10.800Z,25.20
2018-07-02T11:29:41.587Z,25.30
2018-07-02T11:32:12.796Z,25.10
2018-07-02T11:34:43.633Z,25.10
2018-07-02T11:37:14.503Z,25.30
2018-07-02T11:39:45.405Z,25.50
2018-07-02T11:42:16.049Z,25.40
2018-07-02T11:44:46.836Z,25.50
2018-07-02T11:47:17.322Z,25.40
2018-07-02T11:49:47.880Z,25.30
2018-07-02T11:52:18.717Z,25.30
2018-07-02T11:54:49.782Z,25.30
2018-07-02T11:57:20.844Z,25.30
2018-07-02T11:59:51.631Z,25.40
2018-07-02T12:02:22.432Z,25.50
2018-07-02T12:04:53.088Z,25.60
2018-07-02T12:07:23.791Z,25.70
2018-07-02T12:09:54.617Z,25.50
2018-07-02T12:12:25.386Z,25.50
2018-07-02T12:14:55.989Z,25.50
2018-07-02T12:17:26.845Z,25.50
2018-07-02T12:19:58.132Z,25.60
2018-07-02T12:22:28.676Z,25.60
2018-07-02T12:25:00.134Z,25.80
2018-07-02T12:27:31.163Z,26.00
2018-07-02T12:30:01.876Z,26.00
2018-07-02T12:32:32.652Z,25.70
2018-07-02T12:35:03.658Z,25.60
2018-07-02T12:37:34.231Z,25.50
2018-07-02T12:40:05.276Z,25.50
2018-07-02T12:42:36.116Z,25.60
2018-07-02T12:45:07.908Z,25.60
2018-07-02T12:47:38.670Z,25.60
2018-07-02T12:50:10.105Z,25.50
2018-07-02T12:52:40.847Z,25.50
2018-07-02T12:55:11.665Z,25.30
2018-07-02T12:57:42.314Z,25.30
2018-07-02T13:00:13.851Z,25.30
2018-07-02T13:02:44.604Z,25.30
2018-07-02T13:05:15.323Z,25.20
2018-07-02T13:07:46.194Z,25.10
2018-07-02T13:10:17.690Z,25.10
2018-07-02T13:12:48.723Z,24.90
2018-07-02T13:15:19.431Z,24.90
2018-07-02T13:17:51.071Z,24.90
2018-07-02T13:20:22.562Z,24.80
2018-07-02T13:22:53.376Z,24.80
2018-07-02T13:25:23.944Z,24.70
2018-07-02T13:27:54.584Z,24.90
2018-07-02T13:30:25.374Z,24.90
2018-07-02T13:32:56.412Z,25.10
2018-07-02T13:35:27.480Z,25.20
2018-07-02T13:37:58.581Z,25.10
2018-07-02T13:40:29.131Z,25.10
2018-07-02T13:43:00.611Z,25.00
2018-07-02T13:45:31.387Z,25.10
2018-07-02T13:48:02.719Z,25.10
2018-07-02T13:50:39.228Z,25.00
2018-07-02T13:53:09.926Z,25.00
2018-07-02T13:55:41.855Z,25.00
2018-07-02T13:58:14.965Z,25.00
2018-07-02T14:00:46.053Z,25.00
2018-07-02T14:03:16.693Z,24.90
2018-07-02T14:05:48.263Z,24.90
2018-07-02T14:08:18.762Z,25.00
2018-07-02T14:10:49.207Z,25.10
2018-07-02T14:13:24.053Z,25.00
2018-07-02T14:15:55.422Z,25.00
2018-07-02T14:18:26.373Z,24.90
2018-07-02T14:20:57.118Z,24.90
2018-07-02T14:23:27.766Z,24.90
2018-07-02T14:25:58.831Z,24.90
2018-07-02T14:28:29.541Z,24.90
2018-07-02T14:31:00.090Z,24.90
2018-07-02T14:33:30.702Z,24.90
2018-07-02T14:36:01.387Z,24.90
2018-07-02T14:38:32.534Z,24.90
2018-07-02T14:41:03.643Z,24.90
2018-07-02T14:43:34.349Z,24.90
2018-07-02T14:46:05.109Z,24.90
2018-07-02T14:48:36.743Z,25.10
2018-07-02T14:51:07.896Z,25.20
2018-07-02T14:53:39.631Z,25.30
2018-07-02T14:56:11.139Z,25.40
2018-07-02T14:58:41.923Z,25.30
2018-07-02T15:01:12.748Z,25.20
2018-07-02T15:03:43.456Z,25.00
2018-07-02T15:06:14.155Z,24.90
2018-07-02T15:08:44.905Z,24.80
2018-07-02T15:11:16.569Z,24.70
2018-07-02T15:13:47.761Z,24.80
2018-07-02T15:16:18.453Z,24.90
2018-07-02T15:18:49.405Z,25.00
2018-07-02T15:21:20.405Z,25.10
2018-07-02T15:23:51.150Z,25.30
2018-07-02T15:26:21.793Z,25.50
2018-07-02T15:28:52.472Z,25.60
2018-07-02T15:31:23.265Z,25.60
2018-07-02T15:33:54.161Z,25.60
2018-07-02T15:36:24.996Z,25.60
2018-07-02T15:38:55.631Z,25.60
2018-07-02T15:41:26.294Z,25.50
2018-07-02T15:43:57.151Z,25.60
2018-07-02T15:46:27.692Z,25.50
2018-07-02T15:48:58.708Z,25.50
2018-07-02T15:51:29.353Z,25.50
2018-07-02T15:54:00.968Z,25.50
2018-07-02T15:56:31.619Z,25.50
2018-07-02T15:59:02.207Z,25.40
2018-07-02T16:01:33.158Z,25.50
2018-07-02T16:04:03.951Z,25.50
2018-07-02T16:06:34.931Z,25.50
2018-07-02T16:09:09.858Z,25.60
2018-07-02T16:11:41.090Z,25.70
2018-07-02T16:14:12.148Z,25.80
2018-07-02T16:16:42.727Z,25.80
2018-07-02T16:19:13.660Z,25.80
2018-07-02T16:21:44.647Z,25.70
2018-07-02T16:24:15.711Z,25.80
2018-07-02T16:26:46.498Z,25.80
2018-07-02T16:29:17.661Z,25.90
2018-07-02T16:31:48.361Z,26.10
2018-07-02T16:34:18.984Z,26.30
2018-07-02T16:36:49.822Z,26.30
2018-07-02T16:39:21.031Z,26.30
2018-07-02T16:41:51.622Z,26.30
2018-07-02T16:44:22.196Z,26.40
2018-07-02T16:46:52.796Z,26.40
2018-07-02T16:49:23.395Z,26.60
2018-07-02T16:51:54.396Z,26.70
2018-07-02T16:54:25.017Z,26.70
2018-07-02T16:56:55.667Z,26.80
2018-07-02T16:59:26.621Z,26.80
2018-07-02T17:01:57.349Z,26.60
2018-07-02T17:04:28.864Z,26.30
2018-07-02T17:07:00.324Z,25.90
2018-07-02T17:09:31.355Z,25.50
2018-07-02T17:12:02.362Z,25.20
2018-07-02T17:14:33.166Z,25.10
2018-07-02T17:17:04.440Z,25.10
2018-07-02T17:19:35.364Z,24.90
2018-07-02T17:22:06.286Z,24.90
2018-07-02T17:24:37.244Z,24.90
2018-07-02T17:27:08.481Z,24.90
2018-07-02T17:29:39.799Z,24.90
2018-07-02T17:32:10.335Z,24.90
2018-07-02T17:34:43.231Z,24.80
2018-07-02T17:37:13.942Z,24.80
2018-07-02T17:39:44.618Z,24.90
2018-07-02T17:42:16.069Z,24.90
2018-07-02T17:44:46.731Z,24.90
2018-07-02T17:47:17.779Z,24.90
2018-07-02T17:49:48.480Z,24.80
2018-07-02T17:52:19.089Z,24.70
2018-07-02T17:54:49.822Z,24.60
2018-07-02T17:57:20.948Z,24.40
2018-07-02T17:59:51.589Z,24.30
2018-07-02T18:02:23.667Z,24.10
2018-07-02T18:04:54.627Z,23.80
2018-07-02T18:07:25.228Z,23.60
2018-07-02T18:09:56.281Z,23.20
2018-07-02T18:12:27.481Z,22.90
2018-07-02T18:14:58.837Z,22.60
2018-07-02T18:17:29.512Z,22.30
2018-07-02T18:20:00.993Z,22.00
2018-07-02T18:22:32.091Z,21.70
2018-07-02T18:25:03.370Z,21.50
2018-07-02T18:27:34.656Z,21.20
2018-07-02T18:30:06.066Z,21.00
2018-07-02T18:32:37.141Z,20.90
2018-07-02T18:35:08.624Z,20.80
2018-07-02T18:37:39.483Z,20.60
2018-07-02T18:40:10.359Z,20.60
2018-07-02T18:42:41.182Z,20.50
2018-07-02T18:45:12.321Z,20.40
2018-07-02T18:47:43.060Z,20.20
2018-07-02T18:50:14.289Z,20.10
2018-07-02T18:52:45.445Z,20.00
2018-07-02T18:55:16.652Z,19.90
2018-07-02T18:57:48.640Z,19.80
2018-07-02T19:00:20.007Z,19.70
2018-07-02T19:02:50.893Z,19.50
2018-07-02T19:05:21.785Z,19.40
2018-07-02T19:07:52.652Z,19.30
2018-07-02T19:10:23.772Z,19.20
2018-07-02T19:12:55.294Z,19.10
2018-07-02T19:15:26.117Z,19.00
2018-07-02T19:17:57.188Z,18.90
2018-07-02T19:20:28.445Z,18.90
2018-07-02T19:22:59.441Z,18.90
2018-07-02T19:25:30.619Z,18.80
2018-07-02T19:28:01.677Z,18.70
2018-07-02T19:30:32.731Z,18.60
2018-07-02T19:33:04.116Z,18.50
2018-07-02T19:35:35.429Z,18.40
2018-07-02T19:38:06.530Z,18.30
2018-07-02T19:40:37.676Z,18.30
2018-07-02T19:43:08.843Z,18.30
2018-07-02T19:45:40.125Z,18.20
2018-07-02T19:48:11.070Z,18.20
2018-07-02T19:50:42.111Z,18.20
2018-07-02T19:53:13.869Z,18.20
2018-07-02T19:55:44.721Z,18.20
2018-07-02T19:58:15.476Z,18.10
2018-07-02T20:00:46.748Z,18.10
2018-07-02T20:03:17.798Z,18.10
2018-07-02T20:05:48.666Z,18.00
2018-07-02T20:08:19.462Z,18.00
2018-07-02T20:10:50.521Z,18.00
2018-07-02T20:13:21.452Z,18.10
2018-07-02T20:15:52.295Z,18.10
2018-07-02T20:18:23.417Z,18.10
2018-07-02T20:20:54.447Z,18.20
2018-07-02T20:23:25.901Z,18.20
2018-07-02T20:25:56.500Z,18.20
2018-07-02T20:28:27.689Z,18.20
2018-07-02T20:30:58.685Z,18.20
2018-07-02T20:33:29.582Z,18.20
2018-07-02T20:36:00.721Z,18.30
2018-07-02T20:38:31.664Z,18.40
2018-07-02T20:41:02.571Z,18.50
2018-07-02T20:43:33.956Z,18.50
2018-07-02T20:46:04.884Z,18.40
2018-07-02T20:48:36.089Z,18.40
2018-07-02T20:51:06.873Z,18.30
2018-07-02T20:53:37.618Z,18.20
2018-07-02T20:56:08.855Z,18.10
2018-07-02T20:58:40.405Z,17.90
2018-07-02T21:01:11.480Z,17.90
2018-07-02T21:03:42.175Z,17.80
2018-07-02T21:06:13.205Z,17.70
2018-07-02T21:08:44.079Z,17.60
2018-07-02T21:11:14.943Z,17.50
2018-07-02T21:13:45.728Z,17.40
2018-07-02T21:16:16.576Z,17.40
2018-07-02T21:18:47.750Z,17.30
2018-07-02T21:21:18.525Z,17.20
2018-07-02T21:23:50.437Z,17.20
2018-07-02T21:26:20.788Z,17.10
2018-07-02T21:28:51.602Z,17.00
2018-07-02T21:31:22.799Z,16.90
2018-07-02T21:33:53.619Z,16.80
2018-07-02T21:36:24.080Z,16.70
2018-07-02T21:38:54.302Z,16.50
2018-07-02T21:41:28.799Z,16.50
2018-07-02T21:43:59.008Z,16.40
2018-07-02T21:46:29.314Z,16.40
2018-07-02T21:49:00.197Z,16.30
2018-07-02T21:51:30.725Z,16.30
2018-07-02T21:54:00.958Z,16.30
2018-07-02T21:56:31.383Z,16.30
2018-07-02T21:59:01.997Z,16.20
2018-07-02T22:01:32.427Z,16.20
2018-07-02T22:04:02.607Z,16.20
2018-07-02T22:06:33.442Z,16.30
2018-07-02T22:09:04.763Z,16.30
2018-07-02T22:11:34.962Z,16.20
2018-07-02T22:14:05.800Z,16.20
2018-07-02T22:16:36.266Z,16.20
2018-07-02T22:19:07.402Z,16.20
2018-07-02T22:21:37.852Z,16.10
2018-07-02T22:24:08.421Z,16.10
2018-07-02T22:26:38.981Z,16.20
2018-07-02T22:29:10.214Z,16.30
2018-07-02T22:31:40.580Z,16.30
2018-07-02T22:34:10.937Z,16.20
2018-07-02T22:36:41.929Z,16.20
2018-07-02T22:39:12.607Z,16.10
2018-07-02T22:41:42.716Z,16.00
2018-07-02T22:44:12.870Z,15.90
2018-07-02T22:46:43.269Z,15.70
2018-07-02T22:49:13.468Z,15.70
2018-07-02T22:51:43.637Z,15.60
2018-07-02T22:54:14.357Z,15.50
2018-07-02T22:56:44.644Z,15.50
2018-07-02T22:59:14.734Z,15.40
2018-07-02T23:01:44.957Z,15.40
2018-07-02T23:04:15.723Z,15.40
2018-07-02T23:06:46.286Z,15.40
2018-07-02T23:09:16.538Z,15.40
2018-07-02T23:11:47.036Z,15.30
2018-07-02T23:14:17.427Z,15.20
2018-07-02T23:16:47.765Z,15.20
2018-07-02T23:19:17.996Z,15.10
2018-07-02T23:21:48.161Z,15.10
2018-07-02T23:24:18.227Z,15.10
2018-07-02T23:26:48.307Z,15.00
2018-07-02T23:29:18.554Z,15.00
2018-07-02T23:31:48.966Z,15.00
2018-07-02T23:34:19.668Z,14.90
2018-07-02T23:36:49.780Z,14.90
2018-07-02T23:39:19.916Z,14.80
2018-07-02T23:41:50.108Z,14.80
2018-07-02T23:44:20.558Z,14.80
2018-07-02T23:46:50.809Z,14.80
2018-07-02T23:49:21.048Z,14.90
2018-07-02T23:51:51.140Z,15.00
2018-07-02T23:54:21.228Z,15.00
2018-07-02T23:56:51.624Z,14.90
2018-07-02T23:59:21.783Z,14.90
